Freedom — WDD5825 — position and weather

sailwx.info

Track history (hours):
 
Tides and Currents Weather Stations Pressure Air Temp Water Temp Dewpoint Dewpoint Depression Visibility Wind Speed Wind Dir Waves Ship Positions

Freedom

Owner: REINAUER TRANSPORTATION CO.,LLC., STATEN ISLAND, NY. More information available from US FCC via Universal Licensing System and Coast Guard Vessel Documentation Center.

Last reported at 2017-Oct-23 00:30 UTC. Time now 2017-Oct-23 00:44 UTC.
Position N 42°23' W 071°03'.

Length 28 m; draft 4.3 m.

Type: Tug. MMSI: 367164250.

Date/timePositionNaut miles runAvg speedWind from/ knotsBaromVisibWave heightAir tempDewpointWater temp
2017-Oct-23 00:30N 42°23' W 071°03'0 0.0
2017-Oct-22 23:54N 42°23' W 071°03'0 0.0
2017-Oct-22 23:27N 42°23' W 071°03'0 0.0
2017-Oct-22 22:52N 42°23' W 071°03'0 0.0
2017-Oct-22 22:24N 42°23' W 071°03'0 0.0
2017-Oct-22 22:01N 42°23' W 071°03'0 0.0
2017-Oct-22 21:08N 42°23' W 071°03'0 0.0
2017-Oct-22 19:13N 42°23' W 071°03'0 0.0
2017-Oct-22 18:58N 42°23' W 071°03'0 0.0
2017-Oct-22 18:24N 42°23' W 071°03'0 0.1
2017-Oct-22 18:00N 42°23' W 071°03'2 4.3
2017-Oct-22 17:26N 42°21' W 071°01'0 0.1
2017-Oct-22 16:59N 42°21' W 071°01'2 5.1
2017-Oct-22 16:30N 42°20' W 070°58'1 2.2
2017-Oct-22 15:58N 42°20' W 070°60'1 1.8
2017-Oct-22 15:13N 42°21' W 071°01'0 0.3
2017-Oct-22 14:56N 42°21' W 071°01'2 5.3
2017-Oct-22 14:29N 42°23' W 071°03'0 0.0
2017-Oct-22 14:00N 42°23' W 071°03'0 0.0
2017-Oct-22 13:30N 42°23' W 071°03'0 0.0
2017-Oct-22 13:00N 42°23' W 071°03'0 0.0
2017-Oct-22 11:59N 42°23' W 071°03'0 0.0
2017-Oct-22 11:26N 42°23' W 071°03'0 0.0
2017-Oct-22 11:00N 42°23' W 071°03'0 0.0
2017-Oct-22 10:30N 42°23' W 071°03'0 0.0
2017-Oct-22 10:01N 42°23' W 071°03'1 1.2
2017-Oct-22 09:31N 42°23' W 071°03'2 3.7
2017-Oct-22 09:00N 42°21' W 071°02'1 2.5
2017-Oct-22 08:26N 42°23' W 071°03'0 0.0
2017-Oct-22 08:00N 42°23' W 071°03'0 0.0
2017-Oct-22 07:28N 42°23' W 071°03'0 0.0
2017-Oct-22 06:57N 42°23' W 071°03'0 0.0
2017-Oct-22 06:29N 42°23' W 071°03'0 0.0
2017-Oct-22 06:00N 42°23' W 071°03'0 0.0
2017-Oct-22 05:30N 42°23' W 071°03'0 0.0
2017-Oct-22 04:55N 42°23' W 071°03'0 0.0
2017-Oct-22 02:20N 42°23' W 071°03'0 0.0
2017-Oct-22 02:00N 42°23' W 071°03'0 0.0
2017-Oct-22 01:30N 42°23' W 071°03'0 0.0
2017-Oct-22 01:00N 42°23' W 071°03'0 0.0
2017-Oct-22 00:30N 42°23' W 071°03'0 0.0
2017-Oct-22 00:00N 42°23' W 071°03'0 0.0
2017-Oct-21 23:31N 42°23' W 071°03'0 0.0
2017-Oct-21 19:03N 42°23' W 071°03'0 0.0
2017-Oct-21 18:34N 42°23' W 071°03'0 0.0
2017-Oct-21 17:33N 42°23' W 071°03'0 3.4
2017-Oct-21 17:31N 42°23' W 071°03'2 4.9
2017-Oct-21 17:00N 42°21' W 071°01'2 2.3
2017-Oct-21 16:11N 42°20' W 070°59'211.1
2017-Oct-21 15:58N 42°21' W 071°02'3 5.5
2017-Oct-21 15:31N 42°24' W 071°01'0 0.2
2017-Oct-21 14:58N 42°24' W 071°01'1 2.7
2017-Oct-21 14:30N 42°23' W 071°03'2 1.6
2017-Oct-21 13:30N 42°22' W 071°02'1 0.6
2017-Oct-21 11:30N 42°23' W 071°03'0 0.0
2017-Oct-21 10:58N 42°23' W 071°03'0 0.0
2017-Oct-21 07:23N 42°23' W 071°03'0 0.0
2017-Oct-21 06:33N 42°23' W 071°03'0 0.0
2017-Oct-21 06:22N 42°23' W 071°03'0 0.0
2017-Oct-21 05:52N 42°23' W 071°03'0 0.0
2017-Oct-21 05:29N 42°23' W 071°03'0 0.0
2017-Oct-21 04:59N 42°23' W 071°03'0 0.0
2017-Oct-21 04:28N 42°23' W 071°03'0 0.0
2017-Oct-21 02:14N 42°23' W 071°03'0 0.0
2017-Oct-21 02:00N 42°23' W 071°03'0 0.0
2017-Oct-21 01:28N 42°23' W 071°03'0 0.0
2017-Oct-21 00:59N 42°23' W 071°03'0 0.0
2017-Oct-21 00:25N 42°23' W 071°03'0 0.0
2017-Oct-21 00:00N 42°23' W 071°03'0 0.0
2017-Oct-20 23:26N 42°23' W 071°03'0 0.0
2017-Oct-20 22:57N 42°23' W 071°03'0 0.0
2017-Oct-20 22:24N 42°23' W 071°03'0 0.0
2017-Oct-20 21:58N 42°23' W 071°03'0 0.0
2017-Oct-20 12:59N 42°23' W 071°03'0 0.0
2017-Oct-20 12:02N 42°23' W 071°03'0 0.0
2017-Oct-20 11:53N 42°23' W 071°03'0 0.0
2017-Oct-20 11:28N 42°23' W 071°03'0 0.0
2017-Oct-20 10:58N 42°23' W 071°03'0 0.0
2017-Oct-20 10:20N 42°23' W 071°03'0 0.0
2017-Oct-20 09:53N 42°23' W 071°03'0 0.0
2017-Oct-20 09:27N 42°23' W 071°03'0 0.0
2017-Oct-20 09:01N 42°23' W 071°03'0 0.0
2017-Oct-20 08:30N 42°23' W 071°03'0 0.0
2017-Oct-20 08:00N 42°23' W 071°03'0 0.0
2017-Oct-20 07:31N 42°23' W 071°03'0 0.0
2017-Oct-20 07:01N 42°23' W 071°03'0 0.0
2017-Oct-20 06:30N 42°23' W 071°03'0 0.0
2017-Oct-20 06:00N 42°23' W 071°03'0 0.0
2017-Oct-20 05:30N 42°23' W 071°03'0 0.0
2017-Oct-20 05:00N 42°23' W 071°03'0 0.0
2017-Oct-20 04:30N 42°23' W 071°03'0 0.0
2017-Oct-20 04:01N 42°23' W 071°03'0 0.0
2017-Oct-20 03:30N 42°23' W 071°03'0 0.0
2017-Oct-20 03:01N 42°23' W 071°03'0 0.0
2017-Oct-20 02:31N 42°23' W 071°03'0 0.0
2017-Oct-20 02:01N 42°23' W 071°03'0 0.5
2017-Oct-20 01:30N 42°23' W 071°03'0 0.5
2017-Oct-20 01:01N 42°23' W 071°03'0 0.0
2017-Oct-20 00:31N 42°23' W 071°03'0 0.0
2017-Oct-20 00:01N 42°23' W 071°03'0 0.0
2017-Oct-19 23:31N 42°23' W 071°03'0 0.0
2017-Oct-19 23:01N 42°23' W 071°03'1 2.7
2017-Oct-19 22:30N 42°24' W 071°01'0 0.4
2017-Oct-19 22:00N 42°23' W 071°01'1 2.6
2017-Oct-19 21:30N 42°23' W 071°03'0 0.3
2017-Oct-19 21:00N 42°23' W 071°03'0 0.0
2017-Oct-19 20:30N 42°23' W 071°03'0 0.0
2017-Oct-19 20:00N 42°23' W 071°03'0 0.0
2017-Oct-19 19:30N 42°23' W 071°03'0 0.0
2017-Oct-19 19:00N 42°23' W 071°03'0 0.0
2017-Oct-19 18:30N 42°23' W 071°03'1 1.0
2017-Oct-19 18:00N 42°22' W 071°03'2 3.9
2017-Oct-19 17:30N 42°21' W 071°02'0 0.4
2017-Oct-19 17:00N 42°21' W 071°02'0 0.0
2017-Oct-19 16:30N 42°21' W 071°02'0 0.0
2017-Oct-19 16:00N 42°21' W 071°02'0 0.0
2017-Oct-19 15:30N 42°21' W 071°02'0 0.0
2017-Oct-19 15:00N 42°21' W 071°02'0 1.0
2017-Oct-19 14:30N 42°21' W 071°01'0 0.1
2017-Oct-19 14:00N 42°21' W 071°01'2 4.7
2017-Oct-19 13:30N 42°23' W 071°03'0 0.4
2017-Oct-19 13:00N 42°23' W 071°03'0 0.0
2017-Oct-19 12:30N 42°23' W 071°03'0 0.0
2017-Oct-19 12:00N 42°23' W 071°03'0 0.0
2017-Oct-19 11:30N 42°23' W 071°03'0 0.0
2017-Oct-19 11:00N 42°23' W 071°03'0 0.0
2017-Oct-19 10:30N 42°23' W 071°03'0 0.0
2017-Oct-19 10:00N 42°23' W 071°03'0 0.0
2017-Oct-19 09:30N 42°23' W 071°03'0 0.0
2017-Oct-19 09:00N 42°23' W 071°03'0 0.0
2017-Oct-19 08:30N 42°23' W 071°03'0 0.0
2017-Oct-19 08:00N 42°23' W 071°03'0 0.0
2017-Oct-19 07:30N 42°23' W 071°03'0 0.0
2017-Oct-19 07:00N 42°23' W 071°03'0 0.0
2017-Oct-19 06:30N 42°23' W 071°03'0 0.0
2017-Oct-19 06:01N 42°23' W 071°03'0 0.0
2017-Oct-19 05:30N 42°23' W 071°03'0 0.0
2017-Oct-19 05:00N 42°23' W 071°03'0 0.0
2017-Oct-19 04:30N 42°23' W 071°03'0 0.0
2017-Oct-19 04:00N 42°23' W 071°03'0 0.0
2017-Oct-19 03:30N 42°23' W 071°03'0 0.0
2017-Oct-19 03:00N 42°23' W 071°03'0 0.0
2017-Oct-19 02:30N 42°23' W 071°03'0 0.0
2017-Oct-19 02:00N 42°23' W 071°03'0 0.0
2017-Oct-19 01:30N 42°23' W 071°03'0 0.0
2017-Oct-19 01:00N 42°23' W 071°03'0 0.0
2017-Oct-19 00:30N 42°23' W 071°03'0 0.0
2017-Oct-19 00:00N 42°23' W 071°03'0 0.0
2017-Oct-18 23:30N 42°23' W 071°03'0 0.0
2017-Oct-18 23:00N 42°23' W 071°03'0 0.0
2017-Oct-18 22:30N 42°23' W 071°03'0 0.0
2017-Oct-18 22:00N 42°23' W 071°03'0 0.0
2017-Oct-18 21:30N 42°23' W 071°03'0 0.0
2017-Oct-18 21:00N 42°23' W 071°03'0 0.0
2017-Oct-18 20:30N 42°23' W 071°03'0 0.0
2017-Oct-18 20:00N 42°23' W 071°03'0 0.0
2017-Oct-18 19:30N 42°23' W 071°03'0 0.6
2017-Oct-18 19:00N 42°23' W 071°03'0 0.0
2017-Oct-18 18:30N 42°23' W 071°03'0 0.0
2017-Oct-18 18:00N 42°23' W 071°03'0 0.1
2017-Oct-18 17:30N 42°23' W 071°03'1 2.4
2017-Oct-18 17:00N 42°22' W 071°03'2 3.0
2017-Oct-18 16:30N 42°23' W 071°04'0 0.0
2017-Oct-18 16:00N 42°23' W 071°04'0 0.9
2017-Oct-18 15:30N 42°23' W 071°03'2 3.0
2017-Oct-18 15:00N 42°22' W 071°03'4 3.7
2017-Oct-18 14:00N 42°20' W 070°58'0 0.4
2017-Oct-18 13:30N 42°20' W 070°58'3 5.6
2017-Oct-18 12:59N 42°21' W 071°02'0 0.0
2017-Oct-18 12:29N 42°21' W 071°02'0 0.1
2017-Oct-18 12:00N 42°21' W 071°02'1 1.2
2017-Oct-18 11:30N 42°21' W 071°01'2 4.1
2017-Oct-18 11:00N 42°23' W 071°03'0 0.2
2017-Oct-18 10:30N 42°23' W 071°03'0 0.0
2017-Oct-18 10:00N 42°23' W 071°03'0 0.0
2017-Oct-18 09:30N 42°23' W 071°03'0 0.0
2017-Oct-18 09:00N 42°23' W 071°03'0 0.0
2017-Oct-18 08:30N 42°23' W 071°03'0 0.0
2017-Oct-18 08:00N 42°23' W 071°03'0 0.0
2017-Oct-18 07:30N 42°23' W 071°03'0 0.0
2017-Oct-18 07:00N 42°23' W 071°03'0 0.0
2017-Oct-18 06:30N 42°23' W 071°03'0 0.0
2017-Oct-18 06:00N 42°23' W 071°03'0 0.0
2017-Oct-18 05:30N 42°23' W 071°03'0 0.0
2017-Oct-18 05:00N 42°23' W 071°03'0 0.0
2017-Oct-18 04:30N 42°23' W 071°03'0 0.0
2017-Oct-18 04:00N 42°23' W 071°03'0 0.0
2017-Oct-18 03:30N 42°23' W 071°03'0 0.0
2017-Oct-18 03:00N 42°23' W 071°03'0 0.0
2017-Oct-18 02:30N 42°23' W 071°03'0 0.0
2017-Oct-18 02:00N 42°23' W 071°03'0 0.0
2017-Oct-18 01:30N 42°23' W 071°03'0 0.0
2017-Oct-18 01:00N 42°23' W 071°03'0 0.0
2017-Oct-18 00:30N 42°23' W 071°03'0 0.0
2017-Oct-18 00:00N 42°23' W 071°03'0 0.0
2017-Oct-17 23:30N 42°23' W 071°03'0 0.0
2017-Oct-17 23:00N 42°23' W 071°03'0 0.0
2017-Oct-17 22:30N 42°23' W 071°03'0 0.0
2017-Oct-17 22:00N 42°23' W 071°03'0 0.0
2017-Oct-17 21:30N 42°23' W 071°03'0 0.0
2017-Oct-17 21:00N 42°23' W 071°03'0 0.0
2017-Oct-17 20:30N 42°23' W 071°03'0 0.0
2017-Oct-17 20:00N 42°23' W 071°03'0 0.0
2017-Oct-17 19:30N 42°23' W 071°03'0 0.0
2017-Oct-17 19:00N 42°23' W 071°03'0 0.0
2017-Oct-17 18:30N 42°23' W 071°03'0 0.0
2017-Oct-17 18:00N 42°23' W 071°03'0 0.1
2017-Oct-17 17:30N 42°23' W 071°03'2 3.0
2017-Oct-17 17:00N 42°21' W 071°02'1 1.5
2017-Oct-17 16:30N 42°21' W 071°02'2 4.9
2017-Oct-17 16:00N 42°23' W 071°03'1 1.5
2017-Oct-17 15:30N 42°23' W 071°04'0 0.0
2017-Oct-17 15:00N 42°23' W 071°04'0 0.3
2017-Oct-17 14:30N 42°23' W 071°03'1 1.3
2017-Oct-17 14:00N 42°23' W 071°03'2 4.1
2017-Oct-17 13:30N 42°21' W 071°01'3 6.1
2017-Oct-17 13:00N 42°20' W 070°57'1 1.1
2017-Oct-17 12:30N 42°20' W 070°58'4 8.2
2017-Oct-17 12:00N 42°22' W 071°03'2 4.9
2017-Oct-17 11:31N 42°20' W 071°01'0 0.8
2017-Oct-17 11:00N 42°21' W 071°01'0 0.5
2017-Oct-17 10:31N 42°21' W 071°01'2 0.2
2017-Oct-16 21:30N 42°23' W 071°03'1 1.3
2017-Oct-16 20:53N 42°23' W 071°02'0 0.7
2017-Oct-16 20:28N 42°23' W 071°02'1 1.1
2017-Oct-16 20:00N 42°23' W 071°03'0 0.0
2017-Oct-16 19:30N 42°23' W 071°03'0 0.0
2017-Oct-16 19:00N 42°23' W 071°03'0 0.0
2017-Oct-16 18:30N 42°23' W 071°03'0 0.0
2017-Oct-16 18:00N 42°23' W 071°03'0 0.0
2017-Oct-16 17:30N 42°23' W 071°03'0 0.0
2017-Oct-16 17:00N 42°23' W 071°03'0 0.0
2017-Oct-16 16:30N 42°23' W 071°03'0 0.0
2017-Oct-16 16:00N 42°23' W 071°03'0 0.0
2017-Oct-16 15:30N 42°23' W 071°03'0 0.0
2017-Oct-16 15:00N 42°23' W 071°03'2 1.7
2017-Oct-16 14:00N 42°21' W 071°02'1 1.5
2017-Oct-16 13:30N 42°21' W 071°01'1 1.6
2017-Oct-16 13:00N 42°20' W 071°00'1 1.7
2017-Oct-16 12:30N 42°21' W 071°01'2 5.0
2017-Oct-16 12:00N 42°23' W 071°03'0 0.0
2017-Oct-16 11:30N 42°23' W 071°03'0 0.0
2017-Oct-16 11:00N 42°23' W 071°03'0 0.0
2017-Oct-16 10:30N 42°23' W 071°03'0 0.0
2017-Oct-16 10:00N 42°23' W 071°03'0 0.0
2017-Oct-16 09:30N 42°23' W 071°03'0 0.0
2017-Oct-16 09:00N 42°23' W 071°03'0 0.0
2017-Oct-16 08:30N 42°23' W 071°03'0 0.0
2017-Oct-16 08:00N 42°23' W 071°03'0 0.0
2017-Oct-16 07:30N 42°23' W 071°03'0 0.0
2017-Oct-16 07:00N 42°23' W 071°03'0 0.0
2017-Oct-16 06:30N 42°23' W 071°03'0 0.0
2017-Oct-16 06:00N 42°23' W 071°03'0 0.0
2017-Oct-16 05:30N 42°23' W 071°03'0 0.0
2017-Oct-16 05:01N 42°23' W 071°03'0 0.0
2017-Oct-16 04:30N 42°23' W 071°03'0 0.0
2017-Oct-16 04:00N 42°23' W 071°03'0 0.0
2017-Oct-16 03:30N 42°23' W 071°03'0 0.0
2017-Oct-16 03:00N 42°23' W 071°03'0 0.0
2017-Oct-16 02:31N 42°23' W 071°03'0 0.0
2017-Oct-16 02:00N 42°23' W 071°03'0 0.0
2017-Oct-16 01:30N 42°23' W 071°03'0 0.0
2017-Oct-16 01:00N 42°23' W 071°03'0 0.0
2017-Oct-16 00:30N 42°23' W 071°03'1 1.0
2017-Oct-16 00:00N 42°23' W 071°03'1 2.4
2017-Oct-15 23:30N 42°22' W 071°03'1 1.9
2017-Oct-15 23:00N 42°23' W 071°03'0 0.0
2017-Oct-15 22:31N 42°23' W 071°03'1 0.9
2017-Oct-15 21:34N 42°23' W 071°02'0 2.1
2017-Oct-15 21:30N 42°23' W 071°01'1 1.1
2017-Oct-15 21:00N 42°24' W 071°01'0 0.5
2017-Oct-15 20:30N 42°24' W 071°01'1 1.6
2017-Oct-15 20:00N 42°23' W 071°01'1 3.0
2017-Oct-15 19:30N 42°22' W 071°03'0 0.4
2017-Oct-15 19:00N 42°22' W 071°03'1 1.8
2017-Oct-15 18:30N 42°23' W 071°03'0 0.0
2017-Oct-15 18:01N 42°23' W 071°03'0 0.0
2017-Oct-15 17:30N 42°23' W 071°03'0 0.0
2017-Oct-15 17:00N 42°23' W 071°03'0 0.0
2017-Oct-15 16:30N 42°23' W 071°03'0 0.0
2017-Oct-15 16:01N 42°23' W 071°03'0 0.0
2017-Oct-15 15:30N 42°23' W 071°03'0 0.0
2017-Oct-15 15:00N 42°23' W 071°03'0 0.0
2017-Oct-15 14:01N 42°23' W 071°03'0 0.0
2017-Oct-15 13:30N 42°23' W 071°03'0 0.0
2017-Oct-15 13:00N 42°23' W 071°03'0 0.0
2017-Oct-15 12:30N 42°23' W 071°03'0 0.0
2017-Oct-15 12:01N 42°23' W 071°03'0 0.0
2017-Oct-15 11:30N 42°23' W 071°03'0 0.0
2017-Oct-15 11:00N 42°23' W 071°03'0 0.0
2017-Oct-15 10:30N 42°23' W 071°03'0 0.0
2017-Oct-15 10:00N 42°23' W 071°03'0 0.0
2017-Oct-15 09:30N 42°23' W 071°03'0 0.0
2017-Oct-15 09:00N 42°23' W 071°03'0 0.0
2017-Oct-15 08:30N 42°23' W 071°03'0 0.0
2017-Oct-15 08:00N 42°23' W 071°03'0 0.0
2017-Oct-15 07:30N 42°23' W 071°03'0 0.0
2017-Oct-15 07:00N 42°23' W 071°03'0 0.0
2017-Oct-15 06:30N 42°23' W 071°03'0 0.0
2017-Oct-15 06:00N 42°23' W 071°03'0 0.0
2017-Oct-15 05:30N 42°23' W 071°03'0 0.0
2017-Oct-15 05:00N 42°23' W 071°03'0 0.0
2017-Oct-15 04:30N 42°23' W 071°03'0 0.0
2017-Oct-15 04:00N 42°23' W 071°03'0 0.0
2017-Oct-15 03:30N 42°23' W 071°03'0 0.0
2017-Oct-15 03:01N 42°23' W 071°03'0 0.0
2017-Oct-15 02:30N 42°23' W 071°03'0 0.0
2017-Oct-15 02:00N 42°23' W 071°03'0 0.0
2017-Oct-15 01:30N 42°23' W 071°03'0 0.0
2017-Oct-15 01:00N 42°23' W 071°03'0 0.0
2017-Oct-15 00:30N 42°23' W 071°03'0 0.0
2017-Oct-15 00:00N 42°23' W 071°03'0 0.0
2017-Oct-14 23:30N 42°23' W 071°03'0 0.0
2017-Oct-14 23:00N 42°23' W 071°03'0 0.0
2017-Oct-14 22:30N 42°23' W 071°03'0 0.0
2017-Oct-14 22:01N 42°23' W 071°03'0 0.0
2017-Oct-14 21:30N 42°23' W 071°03'0 0.0
2017-Oct-14 21:00N 42°23' W 071°03'0 0.0
2017-Oct-14 20:30N 42°23' W 071°03'0 0.0
2017-Oct-14 20:01N 42°23' W 071°03'0 0.0
2017-Oct-14 19:30N 42°23' W 071°03'0 0.0
2017-Oct-14 19:00N 42°23' W 071°03'0 0.0
2017-Oct-14 18:30N 42°23' W 071°03'0 0.0
2017-Oct-14 18:01N 42°23' W 071°03'0 0.0
2017-Oct-14 17:30N 42°23' W 071°03'0 0.0
2017-Oct-14 17:00N 42°23' W 071°03'0 0.0
2017-Oct-14 16:30N 42°23' W 071°03'0 0.0
2017-Oct-14 16:01N 42°23' W 071°03'0 0.0
2017-Oct-14 15:30N 42°23' W 071°03'1 1.6
2017-Oct-14 15:00N 42°23' W 071°01'0 0.7
2017-Oct-14 14:30N 42°23' W 071°01'0 0.2
2017-Oct-14 14:00N 42°23' W 071°01'1 2.6
2017-Oct-14 13:30N 42°23' W 071°03'1 2.1
2017-Oct-14 12:56N 42°23' W 071°01'0 0.8
2017-Oct-14 12:26N 42°24' W 071°01'0 0.8
2017-Oct-14 12:00N 42°23' W 071°01'1 2.8
2017-Oct-14 11:30N 42°22' W 071°03'2 4.4
2017-Oct-14 11:00N 42°21' W 071°01'1 2.5
2017-Oct-14 10:30N 42°20' W 070°60'1 1.4
2017-Oct-14 10:00N 42°20' W 070°59'3 6.6
2017-Oct-14 09:30N 42°22' W 071°03'1 2.1
2017-Oct-14 09:01N 42°23' W 071°03'0 0.0
2017-Oct-14 08:30N 42°23' W 071°03'0 0.0
2017-Oct-14 08:01N 42°23' W 071°03'0 0.0
2017-Oct-14 07:31N 42°23' W 071°03'0 0.0
2017-Oct-14 07:00N 42°23' W 071°03'0 0.0
2017-Oct-14 06:30N 42°23' W 071°03'0 0.0
2017-Oct-14 06:00N 42°23' W 071°03'0 0.0
2017-Oct-14 05:31N 42°23' W 071°03'0 0.0
2017-Oct-14 05:01N 42°23' W 071°03'0 0.0
2017-Oct-14 04:31N 42°23' W 071°03'0 0.0
2017-Oct-14 04:00N 42°23' W 071°03'0 0.0
2017-Oct-14 03:30N 42°23' W 071°03'0 0.0
2017-Oct-14 03:00N 42°23' W 071°03'0 0.0
2017-Oct-14 02:31N 42°23' W 071°03'0 0.0
2017-Oct-14 02:00N 42°23' W 071°03'0 0.0
2017-Oct-14 01:29N 42°23' W 071°03'0 0.0
2017-Oct-14 00:59N 42°23' W 071°03'0 0.0
2017-Oct-14 00:30N 42°23' W 071°03'0 0.0
2017-Oct-14 00:00N 42°23' W 071°03'0 0.0
2017-Oct-13 23:30N 42°23' W 071°03'0 0.0
2017-Oct-13 23:01N 42°23' W 071°03'0 0.0
2017-Oct-13 22:30N 42°23' W 071°03'0 0.0
2017-Oct-13 22:00N 42°23' W 071°03'0 0.0
2017-Oct-13 21:31N 42°23' W 071°03'0 0.0
2017-Oct-13 21:01N 42°23' W 071°03'0 0.0
2017-Oct-13 20:30N 42°23' W 071°03'0 0.0
2017-Oct-13 20:00N 42°23' W 071°03'0 0.0
2017-Oct-13 19:30N 42°23' W 071°03'0 0.0
2017-Oct-13 19:00N 42°23' W 071°03'0 0.0
2017-Oct-13 18:30N 42°23' W 071°03'0 0.0
2017-Oct-13 18:00N 42°23' W 071°03'0 0.0
2017-Oct-13 17:30N 42°23' W 071°03'0 0.0
2017-Oct-13 17:00N 42°23' W 071°03'0 0.0
2017-Oct-13 16:30N 42°23' W 071°03'0 0.0
2017-Oct-13 16:01N 42°23' W 071°03'0 0.0
2017-Oct-13 15:31N 42°23' W 071°03'0 0.0
2017-Oct-13 15:00N 42°23' W 071°03'0 0.0
2017-Oct-13 14:30N 42°23' W 071°03'0 0.0
2017-Oct-13 14:00N 42°23' W 071°03'0 0.0
2017-Oct-13 13:30N 42°23' W 071°03'0 0.0
2017-Oct-13 13:00N 42°23' W 071°03'0 0.0
2017-Oct-13 12:31N 42°23' W 071°03'0 0.0
2017-Oct-13 12:00N 42°23' W 071°03'0 0.0
2017-Oct-13 11:30N 42°23' W 071°03'0 0.0
2017-Oct-13 11:01N 42°23' W 071°03'0 0.0
2017-Oct-13 10:30N 42°23' W 071°03'0 0.0
2017-Oct-13 10:01N 42°23' W 071°03'0 0.0
2017-Oct-13 09:31N 42°23' W 071°03'0 0.0
2017-Oct-13 09:00N 42°23' W 071°03'0 0.0
2017-Oct-13 08:31N 42°23' W 071°03'0 0.0
2017-Oct-13 08:00N 42°23' W 071°03'0 0.0
2017-Oct-13 07:30N 42°23' W 071°03'0 0.0
2017-Oct-13 07:00N 42°23' W 071°03'0 0.0
2017-Oct-13 06:31N 42°23' W 071°03'0 0.0
2017-Oct-13 06:00N 42°23' W 071°03'0 0.0
2017-Oct-13 05:30N 42°23' W 071°03'0 0.0
2017-Oct-13 05:00N 42°23' W 071°03'0 0.0
2017-Oct-13 04:30N 42°23' W 071°03'0 0.0
2017-Oct-13 04:00N 42°23' W 071°03'0 0.0
2017-Oct-13 03:30N 42°23' W 071°03'0 0.0
2017-Oct-13 03:00N 42°23' W 071°03'0 0.0
2017-Oct-13 02:30N 42°23' W 071°03'0 0.0
2017-Oct-13 02:01N 42°23' W 071°03'0 0.0
2017-Oct-13 01:31N 42°23' W 071°03'0 0.0
2017-Oct-13 01:00N 42°23' W 071°03'0 0.0
2017-Oct-13 00:31N 42°23' W 071°03'  
Track history (hours):
 
Tides and Currents Weather Stations Pressure Air Temp Water Temp Dewpoint Dewpoint Depression Visibility Wind Speed Wind Dir Waves Ship Positions

Freedom

Owner: REINAUER TRANSPORTATION CO.,LLC., STATEN ISLAND, NY. More information available from US FCC via Universal Licensing System and Coast Guard Vessel Documentation Center.

Last reported at 2017-Oct-23 00:30 UTC. Time now 2017-Oct-23 00:44 UTC.
Position N 42°23' W 071°03'.

Length 28 m; draft 4.3 m.

Type: Tug. MMSI: 367164250.

Date/timePositionNaut miles runAvg speedWind from/ knotsBaromVisibWave heightAir tempDewpointWater temp
2017-Oct-23 00:30N 42°23' W 071°03'0 0.0
2017-Oct-22 23:54N 42°23' W 071°03'0 0.0
2017-Oct-22 23:27N 42°23' W 071°03'0 0.0
2017-Oct-22 22:52N 42°23' W 071°03'0 0.0
2017-Oct-22 22:24N 42°23' W 071°03'0 0.0
2017-Oct-22 22:01N 42°23' W 071°03'0 0.0
2017-Oct-22 21:08N 42°23' W 071°03'0 0.0
2017-Oct-22 19:13N 42°23' W 071°03'0 0.0
2017-Oct-22 18:58N 42°23' W 071°03'0 0.0
2017-Oct-22 18:24N 42°23' W 071°03'0 0.1
2017-Oct-22 18:00N 42°23' W 071°03'2 4.3
2017-Oct-22 17:26N 42°21' W 071°01'0 0.1
2017-Oct-22 16:59N 42°21' W 071°01'2 5.1
2017-Oct-22 16:30N 42°20' W 070°58'1 2.2
2017-Oct-22 15:58N 42°20' W 070°60'1 1.8
2017-Oct-22 15:13N 42°21' W 071°01'0 0.3
2017-Oct-22 14:56N 42°21' W 071°01'2 5.3
2017-Oct-22 14:29N 42°23' W 071°03'0 0.0
2017-Oct-22 14:00N 42°23' W 071°03'0 0.0
2017-Oct-22 13:30N 42°23' W 071°03'0 0.0
2017-Oct-22 13:00N 42°23' W 071°03'0 0.0
2017-Oct-22 11:59N 42°23' W 071°03'0 0.0
2017-Oct-22 11:26N 42°23' W 071°03'0 0.0
2017-Oct-22 11:00N 42°23' W 071°03'0 0.0
2017-Oct-22 10:30N 42°23' W 071°03'0 0.0
2017-Oct-22 10:01N 42°23' W 071°03'1 1.2
2017-Oct-22 09:31N 42°23' W 071°03'2 3.7
2017-Oct-22 09:00N 42°21' W 071°02'1 2.5
2017-Oct-22 08:26N 42°23' W 071°03'0 0.0
2017-Oct-22 08:00N 42°23' W 071°03'0 0.0
2017-Oct-22 07:28N 42°23' W 071°03'0 0.0
2017-Oct-22 06:57N 42°23' W 071°03'0 0.0
2017-Oct-22 06:29N 42°23' W 071°03'0 0.0
2017-Oct-22 06:00N 42°23' W 071°03'0 0.0
2017-Oct-22 05:30N 42°23' W 071°03'0 0.0
2017-Oct-22 04:55N 42°23' W 071°03'0 0.0
2017-Oct-22 02:20N 42°23' W 071°03'0 0.0
2017-Oct-22 02:00N 42°23' W 071°03'0 0.0
2017-Oct-22 01:30N 42°23' W 071°03'0 0.0
2017-Oct-22 01:00N 42°23' W 071°03'0 0.0
2017-Oct-22 00:30N 42°23' W 071°03'0 0.0
2017-Oct-22 00:00N 42°23' W 071°03'0 0.0
2017-Oct-21 23:31N 42°23' W 071°03'0 0.0
2017-Oct-21 19:03N 42°23' W 071°03'0 0.0
2017-Oct-21 18:34N 42°23' W 071°03'0 0.0
2017-Oct-21 17:33N 42°23' W 071°03'0 3.4
2017-Oct-21 17:31N 42°23' W 071°03'2 4.9
2017-Oct-21 17:00N 42°21' W 071°01'2 2.3
2017-Oct-21 16:11N 42°20' W 070°59'211.1
2017-Oct-21 15:58N 42°21' W 071°02'3 5.5
2017-Oct-21 15:31N 42°24' W 071°01'0 0.2
2017-Oct-21 14:58N 42°24' W 071°01'1 2.7
2017-Oct-21 14:30N 42°23' W 071°03'2 1.6
2017-Oct-21 13:30N 42°22' W 071°02'1 0.6
2017-Oct-21 11:30N 42°23' W 071°03'0 0.0
2017-Oct-21 10:58N 42°23' W 071°03'0 0.0
2017-Oct-21 07:23N 42°23' W 071°03'0 0.0
2017-Oct-21 06:33N 42°23' W 071°03'0 0.0
2017-Oct-21 06:22N 42°23' W 071°03'0 0.0
2017-Oct-21 05:52N 42°23' W 071°03'0 0.0
2017-Oct-21 05:29N 42°23' W 071°03'0 0.0
2017-Oct-21 04:59N 42°23' W 071°03'0 0.0
2017-Oct-21 04:28N 42°23' W 071°03'0 0.0
2017-Oct-21 02:14N 42°23' W 071°03'0 0.0
2017-Oct-21 02:00N 42°23' W 071°03'0 0.0
2017-Oct-21 01:28N 42°23' W 071°03'0 0.0
2017-Oct-21 00:59N 42°23' W 071°03'0 0.0
2017-Oct-21 00:25N 42°23' W 071°03'0 0.0
2017-Oct-21 00:00N 42°23' W 071°03'0 0.0
2017-Oct-20 23:26N 42°23' W 071°03'0 0.0
2017-Oct-20 22:57N 42°23' W 071°03'0 0.0
2017-Oct-20 22:24N 42°23' W 071°03'0 0.0
2017-Oct-20 21:58N 42°23' W 071°03'0 0.0
2017-Oct-20 12:59N 42°23' W 071°03'0 0.0
2017-Oct-20 12:02N 42°23' W 071°03'0 0.0
2017-Oct-20 11:53N 42°23' W 071°03'0 0.0
2017-Oct-20 11:28N 42°23' W 071°03'0 0.0
2017-Oct-20 10:58N 42°23' W 071°03'0 0.0
2017-Oct-20 10:20N 42°23' W 071°03'0 0.0
2017-Oct-20 09:53N 42°23' W 071°03'0 0.0
2017-Oct-20 09:27N 42°23' W 071°03'0 0.0
2017-Oct-20 09:01N 42°23' W 071°03'0 0.0
2017-Oct-20 08:30N 42°23' W 071°03'0 0.0
2017-Oct-20 08:00N 42°23' W 071°03'0 0.0
2017-Oct-20 07:31N 42°23' W 071°03'0 0.0
2017-Oct-20 07:01N 42°23' W 071°03'0 0.0
2017-Oct-20 06:30N 42°23' W 071°03'0 0.0
2017-Oct-20 06:00N 42°23' W 071°03'0 0.0
2017-Oct-20 05:30N 42°23' W 071°03'0 0.0
2017-Oct-20 05:00N 42°23' W 071°03'0 0.0
2017-Oct-20 04:30N 42°23' W 071°03'0 0.0
2017-Oct-20 04:01N 42°23' W 071°03'0 0.0
2017-Oct-20 03:30N 42°23' W 071°03'0 0.0
2017-Oct-20 03:01N 42°23' W 071°03'0 0.0
2017-Oct-20 02:31N 42°23' W 071°03'0 0.0
2017-Oct-20 02:01N 42°23' W 071°03'0 0.5
2017-Oct-20 01:30N 42°23' W 071°03'0 0.5
2017-Oct-20 01:01N 42°23' W 071°03'0 0.0
2017-Oct-20 00:31N 42°23' W 071°03'0 0.0
2017-Oct-20 00:01N 42°23' W 071°03'0 0.0
2017-Oct-19 23:31N 42°23' W 071°03'0 0.0
2017-Oct-19 23:01N 42°23' W 071°03'1 2.7
2017-Oct-19 22:30N 42°24' W 071°01'0 0.4
2017-Oct-19 22:00N 42°23' W 071°01'1 2.6
2017-Oct-19 21:30N 42°23' W 071°03'0 0.3
2017-Oct-19 21:00N 42°23' W 071°03'0 0.0
2017-Oct-19 20:30N 42°23' W 071°03'0 0.0
2017-Oct-19 20:00N 42°23' W 071°03'0 0.0
2017-Oct-19 19:30N 42°23' W 071°03'0 0.0
2017-Oct-19 19:00N 42°23' W 071°03'0 0.0
2017-Oct-19 18:30N 42°23' W 071°03'1 1.0
2017-Oct-19 18:00N 42°22' W 071°03'2 3.9
2017-Oct-19 17:30N 42°21' W 071°02'0 0.4
2017-Oct-19 17:00N 42°21' W 071°02'0 0.0
2017-Oct-19 16:30N 42°21' W 071°02'0 0.0
2017-Oct-19 16:00N 42°21' W 071°02'0 0.0
2017-Oct-19 15:30N 42°21' W 071°02'0 0.0
2017-Oct-19 15:00N 42°21' W 071°02'0 1.0
2017-Oct-19 14:30N 42°21' W 071°01'0 0.1
2017-Oct-19 14:00N 42°21' W 071°01'2 4.7
2017-Oct-19 13:30N 42°23' W 071°03'0 0.4
2017-Oct-19 13:00N 42°23' W 071°03'0 0.0
2017-Oct-19 12:30N 42°23' W 071°03'0 0.0
2017-Oct-19 12:00N 42°23' W 071°03'0 0.0
2017-Oct-19 11:30N 42°23' W 071°03'0 0.0
2017-Oct-19 11:00N 42°23' W 071°03'0 0.0
2017-Oct-19 10:30N 42°23' W 071°03'0 0.0
2017-Oct-19 10:00N 42°23' W 071°03'0 0.0
2017-Oct-19 09:30N 42°23' W 071°03'0 0.0
2017-Oct-19 09:00N 42°23' W 071°03'0 0.0
2017-Oct-19 08:30N 42°23' W 071°03'0 0.0
2017-Oct-19 08:00N 42°23' W 071°03'0 0.0
2017-Oct-19 07:30N 42°23' W 071°03'0 0.0
2017-Oct-19 07:00N 42°23' W 071°03'0 0.0
2017-Oct-19 06:30N 42°23' W 071°03'0 0.0
2017-Oct-19 06:01N 42°23' W 071°03'0 0.0
2017-Oct-19 05:30N 42°23' W 071°03'0 0.0
2017-Oct-19 05:00N 42°23' W 071°03'0 0.0
2017-Oct-19 04:30N 42°23' W 071°03'0 0.0
2017-Oct-19 04:00N 42°23' W 071°03'0 0.0
2017-Oct-19 03:30N 42°23' W 071°03'0 0.0
2017-Oct-19 03:00N 42°23' W 071°03'0 0.0
2017-Oct-19 02:30N 42°23' W 071°03'0 0.0
2017-Oct-19 02:00N 42°23' W 071°03'0 0.0
2017-Oct-19 01:30N 42°23' W 071°03'0 0.0
2017-Oct-19 01:00N 42°23' W 071°03'0 0.0
2017-Oct-19 00:30N 42°23' W 071°03'0 0.0
2017-Oct-19 00:00N 42°23' W 071°03'0 0.0
2017-Oct-18 23:30N 42°23' W 071°03'0 0.0
2017-Oct-18 23:00N 42°23' W 071°03'0 0.0
2017-Oct-18 22:30N 42°23' W 071°03'0 0.0
2017-Oct-18 22:00N 42°23' W 071°03'0 0.0
2017-Oct-18 21:30N 42°23' W 071°03'0 0.0
2017-Oct-18 21:00N 42°23' W 071°03'0 0.0
2017-Oct-18 20:30N 42°23' W 071°03'0 0.0
2017-Oct-18 20:00N 42°23' W 071°03'0 0.0
2017-Oct-18 19:30N 42°23' W 071°03'0 0.6
2017-Oct-18 19:00N 42°23' W 071°03'0 0.0
2017-Oct-18 18:30N 42°23' W 071°03'0 0.0
2017-Oct-18 18:00N 42°23' W 071°03'0 0.1
2017-Oct-18 17:30N 42°23' W 071°03'1 2.4
2017-Oct-18 17:00N 42°22' W 071°03'2 3.0
2017-Oct-18 16:30N 42°23' W 071°04'0 0.0
2017-Oct-18 16:00N 42°23' W 071°04'0 0.9
2017-Oct-18 15:30N 42°23' W 071°03'2 3.0
2017-Oct-18 15:00N 42°22' W 071°03'4 3.7
2017-Oct-18 14:00N 42°20' W 070°58'0 0.4
2017-Oct-18 13:30N 42°20' W 070°58'3 5.6
2017-Oct-18 12:59N 42°21' W 071°02'0 0.0
2017-Oct-18 12:29N 42°21' W 071°02'0 0.1
2017-Oct-18 12:00N 42°21' W 071°02'1 1.2
2017-Oct-18 11:30N 42°21' W 071°01'2 4.1
2017-Oct-18 11:00N 42°23' W 071°03'0 0.2
2017-Oct-18 10:30N 42°23' W 071°03'0 0.0
2017-Oct-18 10:00N 42°23' W 071°03'0 0.0
2017-Oct-18 09:30N 42°23' W 071°03'0 0.0
2017-Oct-18 09:00N 42°23' W 071°03'0 0.0
2017-Oct-18 08:30N 42°23' W 071°03'0 0.0
2017-Oct-18 08:00N 42°23' W 071°03'0 0.0
2017-Oct-18 07:30N 42°23' W 071°03'0 0.0
2017-Oct-18 07:00N 42°23' W 071°03'0 0.0
2017-Oct-18 06:30N 42°23' W 071°03'0 0.0
2017-Oct-18 06:00N 42°23' W 071°03'0 0.0
2017-Oct-18 05:30N 42°23' W 071°03'0 0.0
2017-Oct-18 05:00N 42°23' W 071°03'0 0.0
2017-Oct-18 04:30N 42°23' W 071°03'0 0.0
2017-Oct-18 04:00N 42°23' W 071°03'0 0.0
2017-Oct-18 03:30N 42°23' W 071°03'0 0.0
2017-Oct-18 03:00N 42°23' W 071°03'0 0.0
2017-Oct-18 02:30N 42°23' W 071°03'0 0.0
2017-Oct-18 02:00N 42°23' W 071°03'0 0.0
2017-Oct-18 01:30N 42°23' W 071°03'0 0.0
2017-Oct-18 01:00N 42°23' W 071°03'0 0.0
2017-Oct-18 00:30N 42°23' W 071°03'0 0.0
2017-Oct-18 00:00N 42°23' W 071°03'0 0.0
2017-Oct-17 23:30N 42°23' W 071°03'0 0.0
2017-Oct-17 23:00N 42°23' W 071°03'0 0.0
2017-Oct-17 22:30N 42°23' W 071°03'0 0.0
2017-Oct-17 22:00N 42°23' W 071°03'0 0.0
2017-Oct-17 21:30N 42°23' W 071°03'0 0.0
2017-Oct-17 21:00N 42°23' W 071°03'0 0.0
2017-Oct-17 20:30N 42°23' W 071°03'0 0.0
2017-Oct-17 20:00N 42°23' W 071°03'0 0.0
2017-Oct-17 19:30N 42°23' W 071°03'0 0.0
2017-Oct-17 19:00N 42°23' W 071°03'0 0.0
2017-Oct-17 18:30N 42°23' W 071°03'0 0.0
2017-Oct-17 18:00N 42°23' W 071°03'0 0.1
2017-Oct-17 17:30N 42°23' W 071°03'2 3.0
2017-Oct-17 17:00N 42°21' W 071°02'1 1.5
2017-Oct-17 16:30N 42°21' W 071°02'2 4.9
2017-Oct-17 16:00N 42°23' W 071°03'1 1.5
2017-Oct-17 15:30N 42°23' W 071°04'0 0.0
2017-Oct-17 15:00N 42°23' W 071°04'0 0.3
2017-Oct-17 14:30N 42°23' W 071°03'1 1.3
2017-Oct-17 14:00N 42°23' W 071°03'2 4.1
2017-Oct-17 13:30N 42°21' W 071°01'3 6.1
2017-Oct-17 13:00N 42°20' W 070°57'1 1.1
2017-Oct-17 12:30N 42°20' W 070°58'4 8.2
2017-Oct-17 12:00N 42°22' W 071°03'2 4.9
2017-Oct-17 11:31N 42°20' W 071°01'0 0.8
2017-Oct-17 11:00N 42°21' W 071°01'0 0.5
2017-Oct-17 10:31N 42°21' W 071°01'2 0.2
2017-Oct-16 21:30N 42°23' W 071°03'1 1.3
2017-Oct-16 20:53N 42°23' W 071°02'0 0.7
2017-Oct-16 20:28N 42°23' W 071°02'1 1.1
2017-Oct-16 20:00N 42°23' W 071°03'0 0.0
2017-Oct-16 19:30N 42°23' W 071°03'0 0.0
2017-Oct-16 19:00N 42°23' W 071°03'0 0.0
2017-Oct-16 18:30N 42°23' W 071°03'0 0.0
2017-Oct-16 18:00N 42°23' W 071°03'0 0.0
2017-Oct-16 17:30N 42°23' W 071°03'0 0.0
2017-Oct-16 17:00N 42°23' W 071°03'0 0.0
2017-Oct-16 16:30N 42°23' W 071°03'0 0.0
2017-Oct-16 16:00N 42°23' W 071°03'0 0.0
2017-Oct-16 15:30N 42°23' W 071°03'0 0.0
2017-Oct-16 15:00N 42°23' W 071°03'2 1.7
2017-Oct-16 14:00N 42°21' W 071°02'1 1.5
2017-Oct-16 13:30N 42°21' W 071°01'1 1.6
2017-Oct-16 13:00N 42°20' W 071°00'1 1.7
2017-Oct-16 12:30N 42°21' W 071°01'2 5.0
2017-Oct-16 12:00N 42°23' W 071°03'0 0.0
2017-Oct-16 11:30N 42°23' W 071°03'0 0.0
2017-Oct-16 11:00N 42°23' W 071°03'0 0.0
2017-Oct-16 10:30N 42°23' W 071°03'0 0.0
2017-Oct-16 10:00N 42°23' W 071°03'0 0.0
2017-Oct-16 09:30N 42°23' W 071°03'0 0.0
2017-Oct-16 09:00N 42°23' W 071°03'0 0.0
2017-Oct-16 08:30N 42°23' W 071°03'0 0.0
2017-Oct-16 08:00N 42°23' W 071°03'0 0.0
2017-Oct-16 07:30N 42°23' W 071°03'0 0.0
2017-Oct-16 07:00N 42°23' W 071°03'0 0.0
2017-Oct-16 06:30N 42°23' W 071°03'0 0.0
2017-Oct-16 06:00N 42°23' W 071°03'0 0.0
2017-Oct-16 05:30N 42°23' W 071°03'0 0.0
2017-Oct-16 05:01N 42°23' W 071°03'0 0.0
2017-Oct-16 04:30N 42°23' W 071°03'0 0.0
2017-Oct-16 04:00N 42°23' W 071°03'0 0.0
2017-Oct-16 03:30N 42°23' W 071°03'0 0.0
2017-Oct-16 03:00N 42°23' W 071°03'0 0.0
2017-Oct-16 02:31N 42°23' W 071°03'0 0.0
2017-Oct-16 02:00N 42°23' W 071°03'0 0.0
2017-Oct-16 01:30N 42°23' W 071°03'0 0.0
2017-Oct-16 01:00N 42°23' W 071°03'0 0.0
2017-Oct-16 00:30N 42°23' W 071°03'1 1.0
2017-Oct-16 00:00N 42°23' W 071°03'1 2.4
2017-Oct-15 23:30N 42°22' W 071°03'1 1.9
2017-Oct-15 23:00N 42°23' W 071°03'0 0.0
2017-Oct-15 22:31N 42°23' W 071°03'1 0.9
2017-Oct-15 21:34N 42°23' W 071°02'0 2.1
2017-Oct-15 21:30N 42°23' W 071°01'1 1.1
2017-Oct-15 21:00N 42°24' W 071°01'0 0.5
2017-Oct-15 20:30N 42°24' W 071°01'1 1.6
2017-Oct-15 20:00N 42°23' W 071°01'1 3.0
2017-Oct-15 19:30N 42°22' W 071°03'0 0.4
2017-Oct-15 19:00N 42°22' W 071°03'1 1.8
2017-Oct-15 18:30N 42°23' W 071°03'0 0.0
2017-Oct-15 18:01N 42°23' W 071°03'0 0.0
2017-Oct-15 17:30N 42°23' W 071°03'0 0.0
2017-Oct-15 17:00N 42°23' W 071°03'0 0.0
2017-Oct-15 16:30N 42°23' W 071°03'0 0.0
2017-Oct-15 16:01N 42°23' W 071°03'0 0.0
2017-Oct-15 15:30N 42°23' W 071°03'0 0.0
2017-Oct-15 15:00N 42°23' W 071°03'0 0.0
2017-Oct-15 14:01N 42°23' W 071°03'0 0.0
2017-Oct-15 13:30N 42°23' W 071°03'0 0.0
2017-Oct-15 13:00N 42°23' W 071°03'0 0.0
2017-Oct-15 12:30N 42°23' W 071°03'0 0.0
2017-Oct-15 12:01N 42°23' W 071°03'0 0.0
2017-Oct-15 11:30N 42°23' W 071°03'0 0.0
2017-Oct-15 11:00N 42°23' W 071°03'0 0.0
2017-Oct-15 10:30N 42°23' W 071°03'0 0.0
2017-Oct-15 10:00N 42°23' W 071°03'0 0.0
2017-Oct-15 09:30N 42°23' W 071°03'0 0.0
2017-Oct-15 09:00N 42°23' W 071°03'0 0.0
2017-Oct-15 08:30N 42°23' W 071°03'0 0.0
2017-Oct-15 08:00N 42°23' W 071°03'0 0.0
2017-Oct-15 07:30N 42°23' W 071°03'0 0.0
2017-Oct-15 07:00N 42°23' W 071°03'0 0.0
2017-Oct-15 06:30N 42°23' W 071°03'0 0.0
2017-Oct-15 06:00N 42°23' W 071°03'0 0.0
2017-Oct-15 05:30N 42°23' W 071°03'0 0.0
2017-Oct-15 05:00N 42°23' W 071°03'0 0.0
2017-Oct-15 04:30N 42°23' W 071°03'0 0.0
2017-Oct-15 04:00N 42°23' W 071°03'0 0.0
2017-Oct-15 03:30N 42°23' W 071°03'0 0.0
2017-Oct-15 03:01N 42°23' W 071°03'0 0.0
2017-Oct-15 02:30N 42°23' W 071°03'0 0.0
2017-Oct-15 02:00N 42°23' W 071°03'0 0.0
2017-Oct-15 01:30N 42°23' W 071°03'0 0.0
2017-Oct-15 01:00N 42°23' W 071°03'0 0.0
2017-Oct-15 00:30N 42°23' W 071°03'0 0.0
2017-Oct-15 00:00N 42°23' W 071°03'0 0.0
2017-Oct-14 23:30N 42°23' W 071°03'0 0.0
2017-Oct-14 23:00N 42°23' W 071°03'0 0.0
2017-Oct-14 22:30N 42°23' W 071°03'0 0.0
2017-Oct-14 22:01N 42°23' W 071°03'0 0.0
2017-Oct-14 21:30N 42°23' W 071°03'0 0.0
2017-Oct-14 21:00N 42°23' W 071°03'0 0.0
2017-Oct-14 20:30N 42°23' W 071°03'0 0.0
2017-Oct-14 20:01N 42°23' W 071°03'0 0.0
2017-Oct-14 19:30N 42°23' W 071°03'0 0.0
2017-Oct-14 19:00N 42°23' W 071°03'0 0.0
2017-Oct-14 18:30N 42°23' W 071°03'0 0.0
2017-Oct-14 18:01N 42°23' W 071°03'0 0.0
2017-Oct-14 17:30N 42°23' W 071°03'0 0.0
2017-Oct-14 17:00N 42°23' W 071°03'0 0.0
2017-Oct-14 16:30N 42°23' W 071°03'0 0.0
2017-Oct-14 16:01N 42°23' W 071°03'0 0.0
2017-Oct-14 15:30N 42°23' W 071°03'1 1.6
2017-Oct-14 15:00N 42°23' W 071°01'0 0.7
2017-Oct-14 14:30N 42°23' W 071°01'0 0.2
2017-Oct-14 14:00N 42°23' W 071°01'1 2.6
2017-Oct-14 13:30N 42°23' W 071°03'1 2.1
2017-Oct-14 12:56N 42°23' W 071°01'0 0.8
2017-Oct-14 12:26N 42°24' W 071°01'0 0.8
2017-Oct-14 12:00N 42°23' W 071°01'1 2.8
2017-Oct-14 11:30N 42°22' W 071°03'2 4.4
2017-Oct-14 11:00N 42°21' W 071°01'1 2.5
2017-Oct-14 10:30N 42°20' W 070°60'1 1.4
2017-Oct-14 10:00N 42°20' W 070°59'3 6.6
2017-Oct-14 09:30N 42°22' W 071°03'1 2.1
2017-Oct-14 09:01N 42°23' W 071°03'0 0.0
2017-Oct-14 08:30N 42°23' W 071°03'0 0.0
2017-Oct-14 08:01N 42°23' W 071°03'0 0.0
2017-Oct-14 07:31N 42°23' W 071°03'0 0.0
2017-Oct-14 07:00N 42°23' W 071°03'0 0.0
2017-Oct-14 06:30N 42°23' W 071°03'0 0.0
2017-Oct-14 06:00N 42°23' W 071°03'0 0.0
2017-Oct-14 05:31N 42°23' W 071°03'0 0.0
2017-Oct-14 05:01N 42°23' W 071°03'0 0.0
2017-Oct-14 04:31N 42°23' W 071°03'0 0.0
2017-Oct-14 04:00N 42°23' W 071°03'0 0.0
2017-Oct-14 03:30N 42°23' W 071°03'0 0.0
2017-Oct-14 03:00N 42°23' W 071°03'0 0.0
2017-Oct-14 02:31N 42°23' W 071°03'0 0.0
2017-Oct-14 02:00N 42°23' W 071°03'0 0.0
2017-Oct-14 01:29N 42°23' W 071°03'0 0.0
2017-Oct-14 00:59N 42°23' W 071°03'0 0.0
2017-Oct-14 00:30N 42°23' W 071°03'0 0.0
2017-Oct-14 00:00N 42°23' W 071°03'0 0.0
2017-Oct-13 23:30N 42°23' W 071°03'0 0.0
2017-Oct-13 23:01N 42°23' W 071°03'0 0.0
2017-Oct-13 22:30N 42°23' W 071°03'0 0.0
2017-Oct-13 22:00N 42°23' W 071°03'0 0.0
2017-Oct-13 21:31N 42°23' W 071°03'0 0.0
2017-Oct-13 21:01N 42°23' W 071°03'0 0.0
2017-Oct-13 20:30N 42°23' W 071°03'0 0.0
2017-Oct-13 20:00N 42°23' W 071°03'0 0.0
2017-Oct-13 19:30N 42°23' W 071°03'0 0.0
2017-Oct-13 19:00N 42°23' W 071°03'0 0.0
2017-Oct-13 18:30N 42°23' W 071°03'0 0.0
2017-Oct-13 18:00N 42°23' W 071°03'0 0.0
2017-Oct-13 17:30N 42°23' W 071°03'0 0.0
2017-Oct-13 17:00N 42°23' W 071°03'0 0.0
2017-Oct-13 16:30N 42°23' W 071°03'0 0.0
2017-Oct-13 16:01N 42°23' W 071°03'0 0.0
2017-Oct-13 15:31N 42°23' W 071°03'0 0.0
2017-Oct-13 15:00N 42°23' W 071°03'0 0.0
2017-Oct-13 14:30N 42°23' W 071°03'0 0.0
2017-Oct-13 14:00N 42°23' W 071°03'0 0.0
2017-Oct-13 13:30N 42°23' W 071°03'0 0.0
2017-Oct-13 13:00N 42°23' W 071°03'0 0.0
2017-Oct-13 12:31N 42°23' W 071°03'0 0.0
2017-Oct-13 12:00N 42°23' W 071°03'0 0.0
2017-Oct-13 11:30N 42°23' W 071°03'0 0.0
2017-Oct-13 11:01N 42°23' W 071°03'0 0.0
2017-Oct-13 10:30N 42°23' W 071°03'0 0.0
2017-Oct-13 10:01N 42°23' W 071°03'0 0.0
2017-Oct-13 09:31N 42°23' W 071°03'0 0.0
2017-Oct-13 09:00N 42°23' W 071°03'0 0.0
2017-Oct-13 08:31N 42°23' W 071°03'0 0.0
2017-Oct-13 08:00N 42°23' W 071°03'0 0.0
2017-Oct-13 07:30N 42°23' W 071°03'0 0.0
2017-Oct-13 07:00N 42°23' W 071°03'0 0.0
2017-Oct-13 06:31N 42°23' W 071°03'0 0.0
2017-Oct-13 06:00N 42°23' W 071°03'0 0.0
2017-Oct-13 05:30N 42°23' W 071°03'0 0.0
2017-Oct-13 05:00N 42°23' W 071°03'0 0.0
2017-Oct-13 04:30N 42°23' W 071°03'0 0.0
2017-Oct-13 04:00N 42°23' W 071°03'0 0.0
2017-Oct-13 03:30N 42°23' W 071°03'0 0.0
2017-Oct-13 03:00N 42°23' W 071°03'0 0.0
2017-Oct-13 02:30N 42°23' W 071°03'0 0.0
2017-Oct-13 02:01N 42°23' W 071°03'0 0.0
2017-Oct-13 01:31N 42°23' W 071°03'0 0.0
2017-Oct-13 01:00N 42°23' W 071°03'0 0.0
2017-Oct-13 00:31N 42°23' W 071°03'  

Dump ship's entire track history